createdAt,value
2023-05-14T00:00:49.108Z,11.70
2023-05-14T00:03:15.980Z,11.60
2023-05-14T00:10:03.282Z,11.50
2023-05-14T00:12:30.238Z,11.40
2023-05-14T00:14:57.077Z,11.40
2023-05-14T00:17:23.845Z,11.30
2023-05-14T00:19:51.170Z,11.30
2023-05-14T00:22:18.021Z,11.30
2023-05-14T00:24:44.777Z,11.20
2023-05-14T00:27:11.580Z,11.20
2023-05-14T00:29:39.140Z,11.20
2023-05-14T00:32:06.397Z,11.10
2023-05-14T00:34:33.348Z,11.10
2023-05-14T00:37:00.130Z,11.10
2023-05-14T00:39:26.864Z,11.00
2023-05-14T00:41:53.668Z,10.90
2023-05-14T00:44:20.456Z,10.90
2023-05-14T00:46:47.642Z,10.80
2023-05-14T00:49:15.153Z,10.80
2023-05-14T00:51:42.626Z,10.80
2023-05-14T00:54:09.651Z,10.80
2023-05-14T00:56:36.609Z,10.80
2023-05-14T00:59:03.370Z,10.80
2023-05-14T01:01:31.159Z,10.80
2023-05-14T01:03:58.702Z,10.80
2023-05-14T01:06:47.537Z,10.80
2023-05-14T01:09:25.263Z,10.80
2023-05-14T01:12:00.854Z,10.80
2023-05-14T01:14:48.669Z,10.80
2023-05-14T01:17:19.990Z,10.80
2023-05-14T01:19:48.279Z,10.80
2023-05-14T01:22:15.050Z,10.80
2023-05-14T01:24:41.880Z,10.80
2023-05-14T01:27:24.566Z,10.80
2023-05-14T01:30:16.529Z,10.80
2023-05-14T01:32:47.259Z,10.80
2023-05-14T01:35:14.749Z,10.80
2023-05-14T01:37:42.884Z,10.70
2023-05-14T01:40:12.220Z,10.70
2023-05-14T01:42:39.251Z,10.70
2023-05-14T01:45:06.742Z,10.70
2023-05-14T01:47:33.510Z,10.60
2023-05-14T01:50:00.792Z,10.60
2023-05-14T01:52:27.616Z,10.50
2023-05-14T01:54:54.380Z,10.50
2023-05-14T01:57:21.396Z,10.60
2023-05-14T01:59:48.132Z,10.60
2023-05-14T02:02:14.868Z,10.70
2023-05-14T02:04:41.927Z,10.80
2023-05-14T02:07:08.639Z,10.80
2023-05-14T02:09:35.988Z,10.90
2023-05-14T02:12:02.743Z,11.00
2023-05-14T02:14:29.584Z,11.10
2023-05-14T02:16:56.640Z,11.10
2023-05-14T02:19:23.506Z,11.20
2023-05-14T02:21:50.471Z,11.20
2023-05-14T02:24:17.327Z,11.30
2023-05-14T02:26:44.063Z,11.30
2023-05-14T02:29:11.455Z,11.30
2023-05-14T02:31:38.336Z,11.30
2023-05-14T02:34:10.708Z,11.20
2023-05-14T02:36:38.274Z,11.20
2023-05-14T02:39:04.937Z,11.20
2023-05-14T02:41:31.722Z,11.10
2023-05-14T02:43:58.486Z,11.00
2023-05-14T02:46:25.648Z,11.00
2023-05-14T02:48:52.510Z,10.90
2023-05-14T02:51:22.880Z,10.80
2023-05-14T02:53:49.665Z,10.80
2023-05-14T02:56:16.507Z,10.70
2023-05-14T02:58:43.304Z,10.60
2023-05-14T03:01:10.189Z,10.60
2023-05-14T03:03:38.126Z,10.50
2023-05-14T03:06:05.850Z,10.50
2023-05-14T03:08:32.622Z,10.40
2023-05-14T03:10:59.446Z,10.40
2023-05-14T03:13:26.295Z,10.40
2023-05-14T03:15:56.886Z,10.30
2023-05-14T03:18:23.761Z,10.30
2023-05-14T03:20:50.526Z,10.30
2023-05-14T03:23:17.250Z,10.20
2023-05-14T03:25:44.899Z,10.20
2023-05-14T03:28:11.694Z,10.20
2023-05-14T03:30:40.197Z,10.10
2023-05-14T03:33:07.142Z,10.10
2023-05-14T03:35:34.049Z,10.10
2023-05-14T03:38:00.734Z,10.10
2023-05-14T03:40:27.556Z,10.10
2023-05-14T03:42:54.408Z,10.10
2023-05-14T03:45:21.231Z,10.10
2023-05-14T03:47:48.080Z,10.10
2023-05-14T03:50:14.877Z,10.10
2023-05-14T03:52:41.594Z,10.10
2023-05-14T03:55:08.758Z,10.20
2023-05-14T03:57:36.814Z,10.20
2023-05-14T04:00:10.357Z,10.20
2023-05-14T04:02:44.325Z,10.20
2023-05-14T04:05:11.332Z,10.30
2023-05-14T04:07:38.223Z,10.30
2023-05-14T04:10:05.662Z,10.40
2023-05-14T04:12:34.673Z,10.50
2023-05-14T04:15:01.756Z,10.60
2023-05-14T04:17:28.560Z,10.70
2023-05-14T04:19:55.387Z,10.80
2023-05-14T04:22:22.128Z,10.90
2023-05-14T04:24:48.884Z,11.00
2023-05-14T04:27:21.189Z,11.10
2023-05-14T04:29:49.200Z,11.20
2023-05-14T04:32:16.533Z,11.30
2023-05-14T04:34:43.729Z,11.40
2023-05-14T04:37:10.606Z,11.50
2023-05-14T04:39:38.825Z,11.60
2023-05-14T04:42:06.733Z,11.70
2023-05-14T04:44:34.696Z,11.80
2023-05-14T04:47:02.110Z,11.90
2023-05-14T04:49:29.152Z,12.10
2023-05-14T04:51:55.857Z,12.20
2023-05-14T04:54:22.834Z,12.30
2023-05-14T04:56:50.741Z,12.50
2023-05-14T04:59:17.543Z,12.70
2023-05-14T05:01:45.260Z,12.80
2023-05-14T05:04:12.946Z,13.00
2023-05-14T05:06:39.986Z,13.10
2023-05-14T05:09:06.836Z,13.20
2023-05-14T05:11:33.634Z,13.30
2023-05-14T05:14:00.566Z,13.30
2023-05-14T05:16:27.489Z,13.40
2023-05-14T05:18:54.355Z,13.40
2023-05-14T05:21:22.198Z,13.50
2023-05-14T05:23:48.966Z,13.40
2023-05-14T05:26:16.717Z,13.50
2023-05-14T05:28:43.488Z,13.50
2023-05-14T05:31:10.336Z,13.60
2023-05-14T05:33:37.217Z,13.60
2023-05-14T05:36:04.199Z,13.70
2023-05-14T05:38:30.979Z,13.80
2023-05-14T05:40:57.693Z,13.90
2023-05-14T05:43:24.434Z,14.00
2023-05-14T05:45:51.202Z,14.10
2023-05-14T05:48:17.915Z,14.20
2023-05-14T05:50:47.497Z,14.20
2023-05-14T05:53:16.475Z,14.30
2023-05-14T05:55:43.240Z,14.30
2023-05-14T05:58:09.965Z,14.40
2023-05-14T06:00:36.790Z,14.40
2023-05-14T06:03:03.663Z,14.40
2023-05-14T06:05:30.503Z,14.40
2023-05-14T06:07:57.282Z,14.40
2023-05-14T06:10:24.509Z,14.40
2023-05-14T06:12:51.433Z,14.50
2023-05-14T06:15:18.408Z,14.50
2023-05-14T06:17:45.925Z,14.60
2023-05-14T06:20:12.966Z,14.60
2023-05-14T06:22:39.792Z,14.70
2023-05-14T06:25:07.163Z,14.80
2023-05-14T06:27:34.040Z,14.90
2023-05-14T06:30:01.315Z,15.00
2023-05-14T06:32:28.154Z,15.20
2023-05-14T06:34:54.920Z,15.30
2023-05-14T06:37:21.715Z,15.40
2023-05-14T06:39:50.482Z,15.50
2023-05-14T06:42:17.634Z,15.70
2023-05-14T06:44:44.901Z,16.10
2023-05-14T06:47:11.717Z,16.60
2023-05-14T06:49:38.979Z,17.20
2023-05-14T06:52:06.280Z,17.80
2023-05-14T06:54:33.180Z,18.80
2023-05-14T06:56:59.893Z,19.20
2023-05-14T06:59:26.782Z,19.70
2023-05-14T07:01:53.628Z,20.00
2023-05-14T07:04:20.678Z,19.60
2023-05-14T07:06:47.547Z,19.10
2023-05-14T07:09:16.110Z,18.70
2023-05-14T07:11:42.849Z,18.40
2023-05-14T07:14:09.560Z,18.10
2023-05-14T07:16:36.683Z,18.00
2023-05-14T07:19:03.536Z,17.80
2023-05-14T07:21:30.340Z,17.60
2023-05-14T07:23:57.120Z,17.30
2023-05-14T07:26:24.581Z,17.20
2023-05-14T07:28:51.356Z,17.00
2023-05-14T07:31:18.230Z,16.70
2023-05-14T07:33:45.190Z,16.50
2023-05-14T07:36:12.140Z,16.50
2023-05-14T07:38:39.031Z,16.40
2023-05-14T07:41:05.840Z,16.20
2023-05-14T07:43:32.668Z,16.00
2023-05-14T07:45:59.458Z,16.00
2023-05-14T07:48:26.431Z,15.90
2023-05-14T07:50:53.988Z,15.90
2023-05-14T07:53:21.884Z,16.00
2023-05-14T07:55:49.355Z,16.00
2023-05-14T07:58:16.620Z,15.90
2023-05-14T08:00:43.881Z,15.80
2023-05-14T08:03:11.130Z,15.70
2023-05-14T08:05:37.984Z,15.70
2023-05-14T08:08:04.841Z,15.70
2023-05-14T08:10:31.692Z,15.70
2023-05-14T08:12:58.502Z,15.70
2023-05-14T08:15:27.592Z,15.80
2023-05-14T08:17:54.918Z,15.70
2023-05-14T08:20:22.491Z,15.70
2023-05-14T08:22:49.411Z,15.70
2023-05-14T08:25:16.223Z,15.60
2023-05-14T08:27:43.076Z,15.70
2023-05-14T08:30:10.240Z,15.70
2023-05-14T08:32:38.592Z,15.80
2023-05-14T08:35:05.975Z,15.90
2023-05-14T08:37:32.782Z,16.00
2023-05-14T08:39:59.842Z,16.20
2023-05-14T08:42:28.602Z,16.30
2023-05-14T08:45:02.582Z,16.50
2023-05-14T08:47:30.820Z,16.70
2023-05-14T08:50:06.328Z,16.90
2023-05-14T08:52:34.279Z,17.00
2023-05-14T08:55:04.337Z,17.00
2023-05-14T08:57:32.875Z,16.90
2023-05-14T08:59:59.987Z,17.00
2023-05-14T09:02:29.507Z,17.10
2023-05-14T09:04:58.217Z,17.30
2023-05-14T09:07:25.240Z,18.00
2023-05-14T09:09:52.976Z,18.60
2023-05-14T09:12:20.419Z,19.10
2023-05-14T09:14:48.919Z,19.60
2023-05-14T09:17:16.605Z,19.60
2023-05-14T09:19:44.328Z,19.60
2023-05-14T09:22:13.041Z,19.60
2023-05-14T09:24:40.740Z,19.50
2023-05-14T09:27:08.216Z,19.40
2023-05-14T09:29:35.443Z,19.30
2023-05-14T09:32:05.317Z,19.20
2023-05-14T09:34:33.853Z,19.40
2023-05-14T09:37:08.464Z,19.50
2023-05-14T09:39:36.609Z,19.60
2023-05-14T09:42:03.931Z,19.70
2023-05-14T09:44:30.783Z,19.70
2023-05-14T09:46:57.656Z,19.60
2023-05-14T09:49:24.420Z,19.60
2023-05-14T09:51:51.564Z,20.00
2023-05-14T09:54:18.625Z,20.20
2023-05-14T09:56:45.403Z,20.30
2023-05-14T09:59:12.254Z,20.40
2023-05-14T10:01:41.877Z,20.10
2023-05-14T10:04:12.177Z,19.90
2023-05-14T10:06:42.086Z,19.70
2023-05-14T10:09:13.796Z,19.50
2023-05-14T10:11:43.823Z,19.50
2023-05-14T10:14:33.623Z,19.40
2023-05-14T10:17:01.721Z,20.70
2023-05-14T10:19:33.188Z,22.40
2023-05-14T10:22:05.035Z,23.90
2023-05-14T10:24:32.930Z,24.10
2023-05-14T10:27:00.346Z,23.90
2023-05-14T10:29:37.919Z,23.50
2023-05-14T10:32:06.880Z,24.30
2023-05-14T10:34:41.073Z,25.80
2023-05-14T10:37:09.230Z,27.10
2023-05-14T10:39:46.788Z,28.40
2023-05-14T10:42:21.679Z,28.20
2023-05-14T10:44:58.542Z,28.40
2023-05-14T10:47:45.794Z,28.20
2023-05-14T10:50:14.756Z,28.30
2023-05-14T10:52:45.490Z,27.50
2023-05-14T10:55:16.601Z,27.20
2023-05-14T10:57:46.028Z,26.40
2023-05-14T11:00:14.161Z,26.30
2023-05-14T11:02:43.194Z,26.90
2023-05-14T11:05:16.872Z,28.00
2023-05-14T11:07:45.641Z,29.30
2023-05-14T11:10:17.263Z,30.40
2023-05-14T11:12:46.741Z,31.10
2023-05-14T11:15:18.339Z,31.70
2023-05-14T11:17:46.920Z,32.00
2023-05-14T11:20:14.544Z,31.20
2023-05-14T11:22:43.024Z,31.10
2023-05-14T11:25:11.141Z,31.00
2023-05-14T11:27:39.140Z,31.50
2023-05-14T11:30:12.801Z,31.80
2023-05-14T11:32:40.499Z,32.10
2023-05-14T11:35:07.679Z,32.30
2023-05-14T11:37:34.535Z,31.30
2023-05-14T11:40:01.979Z,31.10
2023-05-14T11:42:28.770Z,31.00
2023-05-14T11:44:55.597Z,31.10
2023-05-14T11:47:22.763Z,31.30
2023-05-14T11:49:49.934Z,31.40
2023-05-14T11:52:19.405Z,31.50
2023-05-14T11:54:47.016Z,31.60
2023-05-14T11:57:16.862Z,31.70
2023-05-14T11:59:43.888Z,31.80
2023-05-14T12:02:18.671Z,31.80
2023-05-14T12:04:50.815Z,32.10
2023-05-14T12:07:17.718Z,32.50
2023-05-14T12:09:49.371Z,32.70
2023-05-14T12:12:21.429Z,32.60
2023-05-14T12:14:49.798Z,32.50
2023-05-14T12:17:21.445Z,31.40
2023-05-14T12:19:50.141Z,31.30
2023-05-14T12:22:19.353Z,31.60
2023-05-14T12:25:00.226Z,31.60
2023-05-14T12:27:28.612Z,31.60
2023-05-14T12:30:09.142Z,31.60
2023-05-14T12:32:42.947Z,31.50
2023-05-14T12:35:10.274Z,31.50
2023-05-14T12:37:39.334Z,31.60
2023-05-14T12:40:09.827Z,31.40
2023-05-14T12:42:36.874Z,31.20
2023-05-14T12:45:07.129Z,30.10
2023-05-14T12:47:34.750Z,28.90
2023-05-14T12:50:01.891Z,27.80
2023-05-14T12:52:37.441Z,27.30
2023-05-14T12:55:06.990Z,27.10
2023-05-14T12:57:35.262Z,27.00
2023-05-14T13:00:21.475Z,26.80
2023-05-14T13:02:48.595Z,26.50
2023-05-14T13:05:15.709Z,25.60
2023-05-14T13:07:42.567Z,25.00
2023-05-14T13:10:09.847Z,24.40
2023-05-14T13:12:36.607Z,24.10
2023-05-14T13:15:03.476Z,24.00
2023-05-14T13:17:30.732Z,24.00
2023-05-14T13:19:57.698Z,23.90
2023-05-14T13:22:24.617Z,23.90
2023-05-14T13:24:51.439Z,23.90
2023-05-14T13:27:18.185Z,23.90
2023-05-14T13:29:44.971Z,23.70
2023-05-14T13:32:11.726Z,23.40
2023-05-14T13:34:38.508Z,23.20
2023-05-14T13:37:05.368Z,23.10
2023-05-14T13:39:32.090Z,22.90
2023-05-14T13:41:58.841Z,22.80
2023-05-14T13:44:25.824Z,22.50
2023-05-14T13:46:53.018Z,22.30
2023-05-14T13:49:20.043Z,22.10
2023-05-14T13:51:46.767Z,22.00
2023-05-14T13:54:13.512Z,21.70
2023-05-14T13:56:40.386Z,21.60
2023-05-14T13:59:07.269Z,21.50
2023-05-14T14:01:34.137Z,21.50
2023-05-14T14:04:01.056Z,21.40
2023-05-14T14:06:27.784Z,21.30
2023-05-14T14:08:54.565Z,21.30
2023-05-14T14:11:21.984Z,21.30
2023-05-14T14:13:48.766Z,21.30
2023-05-14T14:16:16.161Z,21.30
2023-05-14T14:18:43.391Z,21.40
2023-05-14T14:21:10.570Z,21.50
2023-05-14T14:23:37.316Z,21.50
2023-05-14T14:26:04.178Z,21.40
2023-05-14T14:28:31.230Z,21.50
2023-05-14T14:30:58.102Z,21.50
2023-05-14T14:33:24.976Z,21.70
2023-05-14T14:35:51.786Z,21.80
2023-05-14T14:38:19.477Z,21.80
2023-05-14T14:40:46.741Z,21.80
2023-05-14T14:43:13.517Z,21.70
2023-05-14T14:45:40.415Z,21.50
2023-05-14T14:48:37.513Z,21.30
2023-05-14T14:51:05.792Z,21.20
2023-05-14T14:53:33.298Z,21.10
2023-05-14T14:56:00.628Z,21.00
2023-05-14T14:58:27.812Z,21.00
2023-05-14T15:00:56.619Z,20.90
2023-05-14T15:03:25.060Z,20.90
2023-05-14T15:05:53.378Z,20.80
2023-05-14T15:08:22.547Z,20.80
2023-05-14T15:10:49.373Z,20.70
2023-05-14T15:13:16.187Z,20.50
2023-05-14T15:15:43.058Z,20.50
2023-05-14T15:18:10.198Z,20.40
2023-05-14T15:20:37.476Z,20.40
2023-05-14T15:23:04.398Z,20.40
2023-05-14T15:25:31.366Z,20.50
2023-05-14T15:27:58.128Z,20.30
2023-05-14T15:30:24.980Z,20.20
2023-05-14T15:32:52.248Z,20.20
2023-05-14T15:35:19.033Z,20.20
2023-05-14T15:37:45.841Z,20.30
2023-05-14T15:40:13.081Z,20.20
2023-05-14T15:42:42.088Z,20.20
2023-05-14T15:45:10.467Z,20.10
2023-05-14T15:47:37.447Z,20.10
2023-05-14T15:50:05.331Z,20.10
2023-05-14T15:52:32.302Z,20.10
2023-05-14T15:54:59.574Z,20.10
2023-05-14T15:57:27.527Z,20.20
2023-05-14T15:59:54.351Z,20.20
2023-05-14T16:02:21.138Z,20.10
2023-05-14T16:04:49.517Z,20.00
2023-05-14T16:07:16.684Z,19.80
2023-05-14T16:09:43.542Z,19.70
2023-05-14T16:12:10.551Z,19.60
2023-05-14T16:14:38.039Z,19.60
2023-05-14T16:17:06.175Z,19.60
2023-05-14T16:19:32.901Z,19.60
2023-05-14T16:21:59.624Z,19.60
2023-05-14T16:24:26.346Z,19.70
2023-05-14T16:26:53.174Z,19.60
2023-05-14T16:29:19.948Z,19.50
2023-05-14T16:31:46.725Z,19.40
2023-05-14T16:34:13.826Z,19.20
2023-05-14T16:36:41.050Z,19.10
2023-05-14T16:39:08.613Z,19.00
2023-05-14T16:41:35.981Z,19.00
2023-05-14T16:44:03.418Z,18.90
2023-05-14T16:46:31.128Z,18.90
2023-05-14T16:48:58.081Z,18.90
2023-05-14T16:51:24.845Z,18.90
2023-05-14T16:53:52.218Z,18.90
2023-05-14T16:56:21.290Z,18.80
2023-05-14T16:58:48.204Z,18.80
2023-05-14T17:01:15.231Z,18.70
2023-05-14T17:03:42.062Z,18.70
2023-05-14T17:06:09.972Z,18.60
2023-05-14T17:08:36.753Z,18.50
2023-05-14T17:11:05.605Z,18.50
2023-05-14T17:13:33.079Z,18.40
2023-05-14T17:16:00.568Z,18.40
2023-05-14T17:18:27.648Z,18.40
2023-05-14T17:20:54.554Z,18.40
2023-05-14T17:23:21.393Z,18.30
2023-05-14T17:25:48.152Z,18.30
2023-05-14T17:28:15.084Z,18.10
2023-05-14T17:30:41.853Z,18.10
2023-05-14T17:33:08.749Z,18.00
2023-05-14T17:35:36.348Z,17.90
2023-05-14T17:38:03.508Z,17.80
2023-05-14T17:40:30.443Z,17.80
2023-05-14T17:42:57.233Z,17.70
2023-05-14T17:45:24.374Z,17.60
2023-05-14T17:47:51.512Z,17.60
2023-05-14T17:50:19.297Z,17.50
2023-05-14T17:52:47.432Z,17.50
2023-05-14T17:55:14.277Z,17.40
2023-05-14T17:57:41.947Z,17.40
2023-05-14T18:00:09.069Z,17.30
2023-05-14T18:02:39.383Z,17.30
2023-05-14T18:05:06.793Z,17.20
2023-05-14T18:07:34.854Z,17.20
2023-05-14T18:10:02.640Z,17.10
2023-05-14T18:12:29.412Z,17.10
2023-05-14T18:14:56.113Z,17.00
2023-05-14T18:17:22.998Z,17.00
2023-05-14T18:19:49.814Z,16.90
2023-05-14T18:22:16.675Z,16.80
2023-05-14T18:24:44.355Z,16.80
2023-05-14T18:27:11.450Z,16.80
2023-05-14T18:29:38.185Z,16.70
2023-05-14T18:32:05.738Z,16.70
2023-05-14T18:34:32.463Z,16.60
2023-05-14T18:36:59.320Z,16.50
2023-05-14T18:39:26.074Z,16.50
2023-05-14T18:41:52.939Z,16.40
2023-05-14T18:44:19.813Z,16.40
2023-05-14T18:46:46.736Z,16.30
2023-05-14T18:49:13.584Z,16.30
2023-05-14T18:51:40.455Z,16.30
2023-05-14T18:54:07.240Z,16.30
2023-05-14T18:56:36.724Z,16.30
2023-05-14T18:59:04.230Z,16.20
2023-05-14T19:01:31.262Z,16.20
2023-05-14T19:03:58.263Z,16.20
2023-05-14T19:06:25.310Z,16.20
2023-05-14T19:08:52.207Z,16.20
2023-05-14T19:11:19.043Z,16.30
2023-05-14T19:13:49.596Z,16.20
2023-05-14T19:16:16.588Z,16.20
2023-05-14T19:18:43.645Z,16.10
2023-05-14T19:21:10.424Z,16.10
2023-05-14T19:23:37.253Z,16.20
2023-05-14T19:26:04.113Z,16.10
2023-05-14T19:28:30.920Z,16.10
2023-05-14T19:30:57.754Z,16.10
2023-05-14T19:33:25.863Z,16.00
2023-05-14T19:35:52.735Z,16.00
2023-05-14T19:38:19.728Z,16.00
2023-05-14T19:40:46.713Z,16.00
2023-05-14T19:43:13.493Z,16.10
2023-05-14T19:45:42.558Z,16.10
2023-05-14T19:48:09.381Z,16.10
2023-05-14T19:50:37.041Z,16.10
2023-05-14T19:53:04.450Z,16.10
2023-05-14T19:55:31.307Z,16.10
2023-05-14T19:57:58.053Z,16.10
2023-05-14T20:00:24.987Z,16.10
2023-05-14T20:02:51.934Z,16.10
2023-05-14T20:05:18.826Z,16.00
2023-05-14T20:07:47.091Z,16.00
2023-05-14T20:10:14.110Z,16.00
2023-05-14T20:12:40.928Z,16.00
2023-05-14T20:15:08.066Z,16.00
2023-05-14T20:17:34.835Z,15.90
2023-05-14T20:20:01.727Z,15.90
2023-05-14T20:22:28.478Z,15.90
2023-05-14T20:24:55.586Z,15.80
2023-05-14T20:27:22.627Z,15.80
2023-05-14T20:29:51.383Z,15.70
2023-05-14T20:32:18.266Z,15.60
2023-05-14T20:34:45.118Z,15.50
2023-05-14T20:37:11.960Z,15.50
2023-05-14T20:39:38.775Z,15.50
2023-05-14T20:42:06.015Z,15.50
2023-05-14T20:44:32.802Z,15.50
2023-05-14T20:46:59.700Z,15.50
2023-05-14T20:49:26.436Z,15.50
2023-05-14T20:51:53.271Z,15.50
2023-05-14T20:54:20.035Z,15.40
2023-05-14T20:56:46.764Z,15.30
2023-05-14T20:59:13.505Z,15.20
2023-05-14T21:01:40.390Z,15.20
2023-05-14T21:04:08.657Z,15.10
2023-05-14T21:06:36.227Z,15.10
2023-05-14T21:09:03.144Z,15.10
2023-05-14T21:11:29.918Z,15.10
2023-05-14T21:13:56.664Z,15.10
2023-05-14T21:16:23.561Z,15.10
2023-05-14T21:18:50.404Z,15.10
2023-05-14T21:21:17.228Z,15.20
2023-05-14T21:23:44.042Z,15.20
2023-05-14T21:26:11.329Z,15.20
2023-05-14T21:28:38.466Z,15.10
2023-05-14T21:31:05.291Z,15.10
2023-05-14T21:33:32.097Z,15.10
2023-05-14T21:35:58.843Z,15.10
2023-05-14T21:38:25.729Z,15.10
2023-05-14T21:40:52.486Z,15.10
2023-05-14T21:43:19.356Z,15.10
2023-05-14T21:45:49.099Z,15.00
2023-05-14T21:48:15.925Z,15.10
2023-05-14T21:50:42.850Z,15.10
2023-05-14T21:53:09.857Z,15.00
2023-05-14T21:55:36.735Z,15.00
2023-05-14T21:58:03.711Z,15.00
2023-05-14T22:00:32.192Z,15.00
2023-05-14T22:02:59.370Z,15.00
2023-05-14T22:05:26.440Z,15.00
2023-05-14T22:07:53.541Z,15.00
2023-05-14T22:10:20.654Z,15.00
2023-05-14T22:12:47.391Z,15.00
2023-05-14T22:15:14.166Z,15.00
2023-05-14T22:17:41.701Z,15.00
2023-05-14T22:20:11.403Z,15.00
2023-05-14T22:22:38.625Z,15.00
2023-05-14T22:25:05.858Z,14.90
2023-05-14T22:27:32.604Z,14.80
2023-05-14T22:29:59.449Z,14.70
2023-05-14T22:32:26.271Z,14.60
2023-05-14T22:34:53.213Z,14.60
2023-05-14T22:37:19.993Z,14.60
2023-05-14T22:39:46.737Z,14.60
2023-05-14T22:42:13.658Z,14.60
2023-05-14T22:44:40.495Z,14.60
2023-05-14T22:47:07.359Z,14.60
2023-05-14T22:49:34.113Z,14.70
2023-05-14T22:52:01.291Z,14.60
2023-05-14T22:54:28.088Z,14.60
2023-05-14T22:56:54.868Z,14.60
2023-05-14T22:59:23.545Z,14.60
2023-05-14T23:01:50.973Z,14.50
2023-05-14T23:04:17.962Z,14.50
2023-05-14T23:06:44.860Z,14.50
2023-05-14T23:09:11.674Z,14.40
2023-05-14T23:11:38.557Z,14.40
2023-05-14T23:14:05.606Z,14.40
2023-05-14T23:16:32.381Z,14.40
2023-05-14T23:18:59.205Z,14.40
2023-05-14T23:21:26.104Z,14.40
2023-05-14T23:23:52.850Z,14.40
2023-05-14T23:26:19.642Z,14.30
2023-05-14T23:28:47.325Z,14.30
2023-05-14T23:31:14.260Z,14.10
2023-05-14T23:33:41.069Z,14.00
2023-05-14T23:36:08.348Z,13.90
2023-05-14T23:38:35.408Z,13.80
2023-05-14T23:41:02.348Z,13.80
2023-05-14T23:43:29.136Z,13.80
2023-05-14T23:45:56.153Z,13.80
2023-05-14T23:48:22.965Z,13.70
2023-05-14T23:50:49.657Z,13.70
2023-05-14T23:53:16.381Z,13.60
2023-05-14T23:55:43.220Z,13.50
2023-05-14T23:58:09.994Z,13.50
